createdAt,value
2022-08-12T00:06:33.194Z,98844.25
2022-08-12T00:16:58.222Z,98839.56
2022-08-12T00:27:26.210Z,98834.03
2022-08-12T00:38:07.981Z,98829.38
2022-08-12T00:48:14.806Z,98829.72
2022-08-12T00:58:25.587Z,98814.28
2022-08-12T01:08:51.941Z,98826.34
2022-08-12T01:18:58.833Z,98835.19
2022-08-12T01:29:08.149Z,98826.59
2022-08-12T01:39:19.110Z,98817.72
2022-08-12T01:49:46.274Z,98817.59
2022-08-12T02:00:01.988Z,98811.94
2022-08-12T02:10:50.401Z,98806.47
2022-08-12T02:21:03.382Z,98805.84
2022-08-12T02:31:10.190Z,98810.88
2022-08-12T02:41:20.560Z,98796.37
2022-08-12T02:51:34.833Z,98799.22
2022-08-12T03:01:48.594Z,98797.13
2022-08-12T03:12:01.609Z,98793.12
2022-08-12T03:22:14.325Z,98788.34
2022-08-12T03:32:36.009Z,98777.94
2022-08-12T03:42:53.161Z,98782.25
2022-08-12T03:53:18.740Z,98780.34
2022-08-12T04:03:42.767Z,98778.91
2022-08-12T04:13:49.863Z,98786.09
2022-08-12T04:23:56.804Z,98778.28
2022-08-12T04:34:04.178Z,98790.97
2022-08-12T04:44:11.241Z,98788.87
2022-08-12T04:54:17.969Z,98808.03
2022-08-12T05:04:29.514Z,98816.38
2022-08-12T05:14:37.753Z,98792.91
2022-08-12T05:24:45.437Z,98794.03
2022-08-12T05:34:52.312Z,98800.81
2022-08-12T05:44:58.798Z,98815.06
2022-08-12T05:55:05.727Z,98801.94
2022-08-12T06:05:12.041Z,98813.94
2022-08-12T06:15:19.265Z,98804.81
2022-08-12T06:25:28.977Z,98803.66
2022-08-12T06:35:48.375Z,98821.03
2022-08-12T06:45:55.628Z,98817.63
2022-08-12T06:56:02.367Z,98813.13
2022-08-12T07:06:14.808Z,98810.22
2022-08-12T07:16:22.827Z,98814.19
2022-08-12T07:26:30.600Z,98813.84
2022-08-12T07:36:36.979Z,98807.66
2022-08-12T07:46:44.921Z,98805.50
2022-08-12T07:56:51.499Z,98798.72
2022-08-12T08:06:59.076Z,98797.34
2022-08-12T08:17:07.598Z,98809.19
2022-08-12T08:27:14.021Z,98805.94
2022-08-12T08:37:21.934Z,98813.03
2022-08-12T08:47:30.993Z,98798.09
2022-08-12T08:57:43.427Z,98803.22
2022-08-12T09:08:08.776Z,98806.59
2022-08-12T09:18:30.928Z,98813.59
2022-08-12T09:28:42.209Z,98817.88
2022-08-12T09:38:59.173Z,98811.97
2022-08-12T09:49:13.514Z,98818.66
2022-08-12T10:00:17.666Z,98818.47
2022-08-12T10:09:58.341Z,98806.97
2022-08-12T10:20:09.959Z,98795.19
2022-08-12T10:30:40.087Z,98806.88
2022-08-12T10:41:05.818Z,98791.94
2022-08-12T10:52:03.180Z,98777.31
2022-08-12T11:04:20.137Z,98767.06
2022-08-12T11:12:56.337Z,98752.63
2022-08-12T11:22:40.180Z,98739.69
2022-08-12T11:32:47.186Z,98732.66
2022-08-12T11:42:53.610Z,98744.53
2022-08-12T11:52:59.981Z,98742.44
2022-08-12T12:03:06.497Z,98732.91
2022-08-12T12:13:23.200Z,98731.72
2022-08-12T12:23:39.285Z,98732.62
2022-08-12T12:33:58.084Z,98738.09
2022-08-12T12:44:05.265Z,98725.41
2022-08-12T12:54:11.686Z,98723.28
2022-08-12T13:04:20.048Z,98709.75
2022-08-12T13:14:31.219Z,98698.78
2022-08-12T13:24:41.389Z,98686.69
2022-08-12T13:35:04.251Z,98671.94
2022-08-12T13:45:20.944Z,98661.53
2022-08-12T13:55:30.955Z,98661.44
2022-08-12T14:05:38.963Z,98649.16
2022-08-12T14:15:51.665Z,98636.44
2022-08-12T14:26:01.752Z,98644.03
2022-08-12T14:36:11.053Z,98633.06
2022-08-12T14:46:24.705Z,98617.59
2022-08-12T15:07:00.721Z,98606.28
2022-08-12T15:17:10.141Z,98597.97
2022-08-12T15:28:04.006Z,98601.13
2022-08-12T15:38:19.283Z,98591.22
2022-08-12T15:48:30.430Z,98590.22
2022-08-12T15:58:39.573Z,98597.47
2022-08-12T16:08:47.023Z,98600.59
2022-08-12T16:19:02.019Z,98574.38
2022-08-12T16:29:15.453Z,98586.66
2022-08-12T16:39:22.647Z,98579.53
2022-08-12T16:49:38.534Z,98568.78
2022-08-12T16:59:53.541Z,98560.28
2022-08-12T17:10:01.277Z,98545.87
2022-08-12T17:20:34.740Z,98539.31
2022-08-12T17:30:37.782Z,98523.34
2022-08-12T17:40:47.805Z,98535.72
2022-08-12T17:50:54.393Z,98532.66
2022-08-12T18:01:03.270Z,98544.94
2022-08-12T18:12:04.183Z,98547.69
2022-08-12T18:22:02.005Z,98546.06
2022-08-12T18:32:43.921Z,98545.25
2022-08-12T18:42:36.576Z,98544.31
2022-08-12T18:52:44.491Z,98544.16
2022-08-12T19:02:54.958Z,98545.53
2022-08-12T19:13:24.544Z,98555.50
2022-08-12T19:23:35.172Z,98552.56
2022-08-12T19:33:48.768Z,98544.25
2022-08-12T19:44:18.526Z,98555.34
2022-08-12T19:54:30.180Z,98564.78
2022-08-12T20:04:38.683Z,98555.63
2022-08-12T20:14:46.524Z,98552.28
2022-08-12T20:24:55.177Z,98559.50
2022-08-12T20:35:10.097Z,98566.97
2022-08-12T20:45:17.258Z,98571.09
2022-08-12T20:55:43.008Z,98580.41
2022-08-12T21:06:12.117Z,98568.37
2022-08-12T21:16:35.420Z,98571.28
2022-08-12T21:26:42.457Z,98566.53
2022-08-12T21:37:26.374Z,98564.00
2022-08-12T21:47:28.945Z,98546.84
2022-08-12T21:57:36.211Z,98540.84
2022-08-12T22:07:54.922Z,98542.91
2022-08-12T22:18:06.012Z,98519.47
2022-08-12T22:28:38.925Z,98523.78
2022-08-12T22:38:47.660Z,98525.69
2022-08-12T22:48:57.894Z,98520.75
2022-08-12T22:59:05.274Z,98515.69
2022-08-12T23:09:11.865Z,98502.16
2022-08-12T23:19:36.262Z,98509.53
2022-08-12T23:30:17.593Z,98502.84
2022-08-12T23:40:15.707Z,98487.59
2022-08-12T23:50:26.296Z,98466.38
